sensor_id;sensor_type;location;lat;lon;timestamp;P1;durP1;ratioP1;P2;durP2;ratioP2
45274;SDS011;31019;43.780;25.948;2023-09-19T00:01:33;25.58;;;24.20;;
45274;SDS011;31019;43.780;25.948;2023-09-19T00:04:01;25.75;;;24.35;;
45274;SDS011;31019;43.780;25.948;2023-09-19T00:06:28;26.25;;;24.95;;
45274;SDS011;31019;43.780;25.948;2023-09-19T00:08:56;26.35;;;24.95;;
45274;SDS011;31019;43.780;25.948;2023-09-19T00:11:25;24.98;;;23.58;;
45274;SDS011;31019;43.780;25.948;2023-09-19T00:13:52;27.63;;;26.13;;
45274;SDS011;31019;43.780;25.948;2023-09-19T00:16:19;25.92;;;24.52;;
45274;SDS011;31019;43.780;25.948;2023-09-19T00:18:46;21.70;;;20.45;;
45274;SDS011;31019;43.780;25.948;2023-09-19T00:21:16;24.98;;;23.58;;
45274;SDS011;31019;43.780;25.948;2023-09-19T00:23:44;27.08;;;25.50;;
45274;SDS011;31019;43.780;25.948;2023-09-19T00:26:11;25.23;;;23.85;;
45274;SDS011;31019;43.780;25.948;2023-09-19T00:28:39;25.77;;;24.27;;
45274;SDS011;31019;43.780;25.948;2023-09-19T00:31:07;26.40;;;24.90;;
45274;SDS011;31019;43.780;25.948;2023-09-19T00:33:34;24.35;;;22.95;;
45274;SDS011;31019;43.780;25.948;2023-09-19T00:36:01;32.30;;;30.50;;
45274;SDS011;31019;43.780;25.948;2023-09-19T00:38:32;29.10;;;27.40;;
45274;SDS011;31019;43.780;25.948;2023-09-19T00:41:02;29.45;;;27.75;;
45274;SDS011;31019;43.780;25.948;2023-09-19T00:43:29;30.95;;;29.15;;
45274;SDS011;31019;43.780;25.948;2023-09-19T00:45:59;28.70;;;27.20;;
45274;SDS011;31019;43.780;25.948;2023-09-19T00:48:28;28.10;;;26.60;;
45274;SDS011;31019;43.780;25.948;2023-09-19T00:50:55;30.00;;;28.20;;
45274;SDS011;31019;43.780;25.948;2023-09-19T00:53:26;26.45;;;24.95;;
45274;SDS011;31019;43.780;25.948;2023-09-19T00:55:54;24.83;;;23.33;;
45274;SDS011;31019;43.780;25.948;2023-09-19T00:58:22;24.60;;;23.25;;
45274;SDS011;31019;43.780;25.948;2023-09-19T01:00:49;24.58;;;23.27;;
45274;SDS011;31019;43.780;25.948;2023-09-19T01:03:18;22.98;;;21.67;;
45274;SDS011;31019;43.780;25.948;2023-09-19T01:05:45;22.77;;;21.48;;
45274;SDS011;31019;43.780;25.948;2023-09-19T01:08:12;21.50;;;20.30;;
45274;SDS011;31019;43.780;25.948;2023-09-19T01:10:39;26.15;;;24.85;;
45274;SDS011;31019;43.780;25.948;2023-09-19T01:13:20;24.90;;;23.50;;
45274;SDS011;31019;43.780;25.948;2023-09-19T01:15:55;25.00;;;23.40;;
45274;SDS011;31019;43.780;25.948;2023-09-19T01:18:40;25.85;;;24.35;;
45274;SDS011;31019;43.780;25.948;2023-09-19T01:21:20;24.55;;;23.10;;
45274;SDS011;31019;43.780;25.948;2023-09-19T01:26:56;22.38;;;21.17;;
45274;SDS011;31019;43.780;25.948;2023-09-19T01:29:41;27.60;;;26.00;;
45274;SDS011;31019;43.780;25.948;2023-09-19T01:32:16;28.50;;;26.73;;
45274;SDS011;31019;43.780;25.948;2023-09-19T01:34:47;25.40;;;24.00;;
45274;SDS011;31019;43.780;25.948;2023-09-19T01:37:15;24.98;;;23.60;;
45274;SDS011;31019;43.780;25.948;2023-09-19T01:39:45;27.75;;;26.25;;
45274;SDS011;31019;43.780;25.948;2023-09-19T01:42:18;26.42;;;24.92;;
45274;SDS011;31019;43.780;25.948;2023-09-19T01:44:57;27.30;;;25.80;;
45274;SDS011;31019;43.780;25.948;2023-09-19T01:47:33;28.70;;;27.15;;
45274;SDS011;31019;43.780;25.948;2023-09-19T01:50:04;26.15;;;24.75;;
45274;SDS011;31019;43.780;25.948;2023-09-19T01:52:40;29.20;;;27.60;;
45274;SDS011;31019;43.780;25.948;2023-09-19T01:55:13;25.60;;;24.20;;
45274;SDS011;31019;43.780;25.948;2023-09-19T01:57:45;28.33;;;26.63;;
45274;SDS011;31019;43.780;25.948;2023-09-19T02:00:18;25.58;;;24.17;;
45274;SDS011;31019;43.780;25.948;2023-09-19T02:02:50;33.03;;;31.33;;
45274;SDS011;31019;43.780;25.948;2023-09-19T02:05:22;27.13;;;25.42;;
45274;SDS011;31019;43.780;25.948;2023-09-19T02:07:50;29.90;;;28.10;;
45274;SDS011;31019;43.780;25.948;2023-09-19T02:10:18;27.95;;;26.30;;
45274;SDS011;31019;43.780;25.948;2023-09-19T02:12:45;31.23;;;29.60;;
45274;SDS011;31019;43.780;25.948;2023-09-19T02:15:12;29.88;;;28.45;;
45274;SDS011;31019;43.780;25.948;2023-09-19T02:17:41;33.47;;;31.67;;
45274;SDS011;31019;43.780;25.948;2023-09-19T02:20:10;31.67;;;30.08;;
45274;SDS011;31019;43.780;25.948;2023-09-19T02:22:41;33.40;;;31.80;;
45274;SDS011;31019;43.780;25.948;2023-09-19T02:25:09;32.08;;;30.48;;
45274;SDS011;31019;43.780;25.948;2023-09-19T02:27:36;34.25;;;32.53;;
45274;SDS011;31019;43.780;25.948;2023-09-19T02:30:05;25.80;;;24.70;;
45274;SDS011;31019;43.780;25.948;2023-09-19T02:32:33;29.67;;;28.27;;
45274;SDS011;31019;43.780;25.948;2023-09-19T02:35:01;28.17;;;26.67;;
45274;SDS011;31019;43.780;25.948;2023-09-19T02:37:32;32.20;;;30.58;;
45274;SDS011;31019;43.780;25.948;2023-09-19T02:40:00;32.67;;;30.88;;
45274;SDS011;31019;43.780;25.948;2023-09-19T02:42:28;28.35;;;26.75;;
45274;SDS011;31019;43.780;25.948;2023-09-19T02:44:55;28.25;;;26.55;;
45274;SDS011;31019;43.780;25.948;2023-09-19T02:47:24;31.98;;;30.05;;
45274;SDS011;31019;43.780;25.948;2023-09-19T02:49:52;28.65;;;26.98;;
45274;SDS011;31019;43.780;25.948;2023-09-19T02:52:19;27.38;;;25.88;;
45274;SDS011;31019;43.780;25.948;2023-09-19T02:54:47;29.88;;;28.38;;
45274;SDS011;31019;43.780;25.948;2023-09-19T02:57:16;25.08;;;23.83;;
45274;SDS011;31019;43.780;25.948;2023-09-19T02:59:44;27.55;;;26.13;;
45274;SDS011;31019;43.780;25.948;2023-09-19T03:02:12;30.02;;;28.52;;
45274;SDS011;31019;43.780;25.948;2023-09-19T03:04:39;26.75;;;25.35;;
45274;SDS011;31019;43.780;25.948;2023-09-19T03:07:06;22.90;;;21.60;;
45274;SDS011;31019;43.780;25.948;2023-09-19T03:09:36;24.33;;;22.92;;
45274;SDS011;31019;43.780;25.948;2023-09-19T03:12:05;28.75;;;27.15;;
45274;SDS011;31019;43.780;25.948;2023-09-19T03:14:33;29.23;;;27.65;;
45274;SDS011;31019;43.780;25.948;2023-09-19T03:17:00;27.80;;;26.30;;
45274;SDS011;31019;43.780;25.948;2023-09-19T03:19:29;59.78;;;56.88;;
45274;SDS011;31019;43.780;25.948;2023-09-19T03:21:58;56.38;;;53.67;;
45274;SDS011;31019;43.780;25.948;2023-09-19T03:24:25;44.65;;;42.35;;
45274;SDS011;31019;43.780;25.948;2023-09-19T03:26:52;44.25;;;42.05;;
45274;SDS011;31019;43.780;25.948;2023-09-19T03:29:21;47.65;;;44.80;;
45274;SDS011;31019;43.780;25.948;2023-09-19T03:31:48;26.38;;;24.88;;
45274;SDS011;31019;43.780;25.948;2023-09-19T03:34:15;27.10;;;25.55;;
45274;SDS011;31019;43.780;25.948;2023-09-19T03:36:42;50.55;;;48.15;;
45274;SDS011;31019;43.780;25.948;2023-09-19T03:39:09;44.58;;;42.38;;
45274;SDS011;31019;43.780;25.948;2023-09-19T03:41:36;49.80;;;47.30;;
45274;SDS011;31019;43.780;25.948;2023-09-19T03:44:03;25.73;;;24.33;;
45274;SDS011;31019;43.780;25.948;2023-09-19T03:46:33;27.58;;;26.08;;
45274;SDS011;31019;43.780;25.948;2023-09-19T03:49:01;60.80;;;56.63;;
45274;SDS011;31019;43.780;25.948;2023-09-19T03:51:28;52.20;;;49.58;;
45274;SDS011;31019;43.780;25.948;2023-09-19T03:53:54;28.92;;;27.52;;
45274;SDS011;31019;43.780;25.948;2023-09-19T03:56:21;23.00;;;21.90;;
45274;SDS011;31019;43.780;25.948;2023-09-19T03:58:48;35.75;;;33.80;;
45274;SDS011;31019;43.780;25.948;2023-09-19T04:01:16;44.35;;;41.95;;
45274;SDS011;31019;43.780;25.948;2023-09-19T04:03:45;34.95;;;33.15;;
45274;SDS011;31019;43.780;25.948;2023-09-19T04:06:12;54.75;;;51.65;;
45274;SDS011;31019;43.780;25.948;2023-09-19T04:08:40;68.07;;;64.18;;
45274;SDS011;31019;43.780;25.948;2023-09-19T04:11:07;22.02;;;20.73;;
45274;SDS011;31019;43.780;25.948;2023-09-19T04:13:34;21.98;;;20.77;;
45274;SDS011;31019;43.780;25.948;2023-09-19T04:16:01;20.23;;;19.02;;
45274;SDS011;31019;43.780;25.948;2023-09-19T04:18:28;32.88;;;31.08;;
45274;SDS011;31019;43.780;25.948;2023-09-19T04:21:00;33.28;;;31.38;;
45274;SDS011;31019;43.780;25.948;2023-09-19T04:23:30;30.98;;;29.17;;
45274;SDS011;31019;43.780;25.948;2023-09-19T04:25:57;19.67;;;18.58;;
45274;SDS011;31019;43.780;25.948;2023-09-19T04:28:25;18.80;;;17.70;;
45274;SDS011;31019;43.780;25.948;2023-09-19T04:30:52;19.02;;;17.83;;
45274;SDS011;31019;43.780;25.948;2023-09-19T04:33:20;20.63;;;19.42;;
45274;SDS011;31019;43.780;25.948;2023-09-19T04:35:48;21.40;;;20.10;;
45274;SDS011;31019;43.780;25.948;2023-09-19T04:38:17;30.92;;;29.13;;
45274;SDS011;31019;43.780;25.948;2023-09-19T04:40:44;27.65;;;26.05;;
45274;SDS011;31019;43.780;25.948;2023-09-19T04:43:11;26.90;;;25.40;;
45274;SDS011;31019;43.780;25.948;2023-09-19T04:45:38;27.80;;;26.20;;
45274;SDS011;31019;43.780;25.948;2023-09-19T04:48:06;27.75;;;26.25;;
45274;SDS011;31019;43.780;25.948;2023-09-19T04:50:34;19.90;;;18.65;;
45274;SDS011;31019;43.780;25.948;2023-09-19T04:53:02;19.60;;;18.40;;
45274;SDS011;31019;43.780;25.948;2023-09-19T04:55:31;30.50;;;28.70;;
45274;SDS011;31019;43.780;25.948;2023-09-19T04:57:58;29.92;;;28.13;;
45274;SDS011;31019;43.780;25.948;2023-09-19T05:00:24;30.70;;;28.80;;
45274;SDS011;31019;43.780;25.948;2023-09-19T05:02:55;37.50;;;35.30;;
45274;SDS011;31019;43.780;25.948;2023-09-19T05:05:23;61.03;;;37.13;;
45274;SDS011;31019;43.780;25.948;2023-09-19T05:07:51;37.75;;;35.50;;
45274;SDS011;31019;43.780;25.948;2023-09-19T05:10:19;29.98;;;28.17;;
45274;SDS011;31019;43.780;25.948;2023-09-19T05:12:48;22.00;;;20.50;;
45274;SDS011;31019;43.780;25.948;2023-09-19T05:15:17;24.13;;;22.75;;
45274;SDS011;31019;43.780;25.948;2023-09-19T05:17:47;29.35;;;27.33;;
45274;SDS011;31019;43.780;25.948;2023-09-19T05:20:15;25.65;;;24.15;;
45274;SDS011;31019;43.780;25.948;2023-09-19T05:22:49;26.55;;;25.05;;
45274;SDS011;31019;43.780;25.948;2023-09-19T05:25:16;20.95;;;19.75;;
45274;SDS011;31019;43.780;25.948;2023-09-19T05:27:43;21.30;;;19.88;;
45274;SDS011;31019;43.780;25.948;2023-09-19T05:30:12;27.08;;;25.48;;
45274;SDS011;31019;43.780;25.948;2023-09-19T05:32:41;29.52;;;27.55;;
45274;SDS011;31019;43.780;25.948;2023-09-19T05:35:09;22.48;;;21.00;;
45274;SDS011;31019;43.780;25.948;2023-09-19T05:37:38;23.10;;;21.70;;
45274;SDS011;31019;43.780;25.948;2023-09-19T05:40:05;21.30;;;19.80;;
45274;SDS011;31019;43.780;25.948;2023-09-19T05:42:35;22.05;;;20.55;;
45274;SDS011;31019;43.780;25.948;2023-09-19T05:45:03;23.75;;;22.35;;
45274;SDS011;31019;43.780;25.948;2023-09-19T05:47:33;26.80;;;25.30;;
45274;SDS011;31019;43.780;25.948;2023-09-19T05:50:02;25.23;;;23.83;;
45274;SDS011;31019;43.780;25.948;2023-09-19T05:52:30;23.65;;;22.15;;
45274;SDS011;31019;43.780;25.948;2023-09-19T05:54:58;27.08;;;25.38;;
45274;SDS011;31019;43.780;25.948;2023-09-19T05:57:25;26.67;;;24.83;;
45274;SDS011;31019;43.780;25.948;2023-09-19T05:59:55;23.80;;;22.30;;
45274;SDS011;31019;43.780;25.948;2023-09-19T06:02:22;25.73;;;24.23;;
45274;SDS011;31019;43.780;25.948;2023-09-19T06:04:55;26.25;;;24.75;;
45274;SDS011;31019;43.780;25.948;2023-09-19T06:07:22;23.70;;;22.20;;
45274;SDS011;31019;43.780;25.948;2023-09-19T06:09:51;25.20;;;22.75;;
45274;SDS011;31019;43.780;25.948;2023-09-19T06:12:18;26.58;;;24.88;;
45274;SDS011;31019;43.780;25.948;2023-09-19T06:14:45;26.52;;;24.83;;
45274;SDS011;31019;43.780;25.948;2023-09-19T06:17:13;27.10;;;25.40;;
45274;SDS011;31019;43.780;25.948;2023-09-19T06:19:40;30.08;;;28.27;;
45274;SDS011;31019;43.780;25.948;2023-09-19T06:22:10;27.05;;;25.45;;
45274;SDS011;31019;43.780;25.948;2023-09-19T06:24:37;27.30;;;25.60;;
45274;SDS011;31019;43.780;25.948;2023-09-19T06:27:07;28.60;;;26.80;;
45274;SDS011;31019;43.780;25.948;2023-09-19T06:29:34;27.30;;;25.80;;
45274;SDS011;31019;43.780;25.948;2023-09-19T06:32:02;26.17;;;24.77;;
45274;SDS011;31019;43.780;25.948;2023-09-19T06:34:33;29.48;;;27.35;;
45274;SDS011;31019;43.780;25.948;2023-09-19T06:37:10;60.45;;;57.65;;
45274;SDS011;31019;43.780;25.948;2023-09-19T06:39:37;25.25;;;23.95;;
45274;SDS011;31019;43.780;25.948;2023-09-19T06:42:04;27.25;;;25.85;;
45274;SDS011;31019;43.780;25.948;2023-09-19T06:44:31;29.67;;;28.17;;
45274;SDS011;31019;43.780;25.948;2023-09-19T06:46:58;29.58;;;28.17;;
45274;SDS011;31019;43.780;25.948;2023-09-19T06:49:24;27.65;;;26.25;;
45274;SDS011;31019;43.780;25.948;2023-09-19T06:51:53;24.60;;;23.30;;
45274;SDS011;31019;43.780;25.948;2023-09-19T06:54:23;29.30;;;27.67;;
45274;SDS011;31019;43.780;25.948;2023-09-19T06:56:51;52.60;;;50.05;;
45274;SDS011;31019;43.780;25.948;2023-09-19T06:59:20;28.83;;;27.42;;
45274;SDS011;31019;43.780;25.948;2023-09-19T07:01:49;26.75;;;25.30;;
45274;SDS011;31019;43.780;25.948;2023-09-19T07:04:17;28.30;;;27.00;;
45274;SDS011;31019;43.780;25.948;2023-09-19T07:06:44;24.60;;;23.40;;
45274;SDS011;31019;43.780;25.948;2023-09-19T07:09:16;25.67;;;24.48;;
45274;SDS011;31019;43.780;25.948;2023-09-19T07:11:46;27.63;;;26.23;;
45274;SDS011;31019;43.780;25.948;2023-09-19T07:14:13;24.08;;;22.77;;
45274;SDS011;31019;43.780;25.948;2023-09-19T07:16:40;26.80;;;25.50;;
45274;SDS011;31019;43.780;25.948;2023-09-19T07:19:09;24.65;;;23.35;;
45274;SDS011;31019;43.780;25.948;2023-09-19T07:21:36;30.10;;;28.45;;
45274;SDS011;31019;43.780;25.948;2023-09-19T07:24:07;27.65;;;26.15;;
45274;SDS011;31019;43.780;25.948;2023-09-19T07:26:37;27.48;;;26.08;;
45274;SDS011;31019;43.780;25.948;2023-09-19T07:29:06;27.45;;;26.15;;
45274;SDS011;31019;43.780;25.948;2023-09-19T07:31:34;25.02;;;23.65;;
45274;SDS011;31019;43.780;25.948;2023-09-19T07:34:01;22.58;;;21.38;;
45274;SDS011;31019;43.780;25.948;2023-09-19T07:36:28;30.65;;;29.05;;
45274;SDS011;31019;43.780;25.948;2023-09-19T07:38:55;27.40;;;25.73;;
45274;SDS011;31019;43.780;25.948;2023-09-19T07:41:23;25.38;;;23.85;;
45274;SDS011;31019;43.780;25.948;2023-09-19T07:43:50;29.65;;;28.10;;
45274;SDS011;31019;43.780;25.948;2023-09-19T07:46:19;28.00;;;26.48;;
45274;SDS011;31019;43.780;25.948;2023-09-19T07:48:46;25.23;;;23.63;;
45274;SDS011;31019;43.780;25.948;2023-09-19T13:49:17;21.80;;;20.20;;
45274;SDS011;31019;43.780;25.948;2023-09-19T13:51:44;21.90;;;20.40;;
45274;SDS011;31019;43.780;25.948;2023-09-19T13:54:12;20.33;;;18.83;;
45274;SDS011;31019;43.780;25.948;2023-09-19T13:56:40;21.60;;;20.00;;
45274;SDS011;31019;43.780;25.948;2023-09-19T13:59:08;20.90;;;19.30;;
45274;SDS011;31019;43.780;25.948;2023-09-19T14:01:35;20.60;;;19.10;;
45274;SDS011;31019;43.780;25.948;2023-09-19T14:04:02;21.35;;;19.75;;
45274;SDS011;31019;43.780;25.948;2023-09-19T14:06:30;21.35;;;19.75;;
45274;SDS011;31019;43.780;25.948;2023-09-19T14:08:58;21.45;;;19.85;;
45274;SDS011;31019;43.780;25.948;2023-09-19T14:11:26;20.15;;;18.63;;
45274;SDS011;31019;43.780;25.948;2023-09-19T14:13:53;20.40;;;18.90;;
45274;SDS011;31019;43.780;25.948;2023-09-19T14:16:20;20.65;;;19.30;;
45274;SDS011;31019;43.780;25.948;2023-09-19T14:18:47;19.73;;;18.33;;
45274;SDS011;31019;43.780;25.948;2023-09-19T14:21:14;21.02;;;19.52;;
45274;SDS011;31019;43.780;25.948;2023-09-19T14:23:43;20.27;;;18.92;;
45274;SDS011;31019;43.780;25.948;2023-09-19T14:26:11;20.15;;;18.85;;
45274;SDS011;31019;43.780;25.948;2023-09-19T14:28:38;20.42;;;19.02;;
45274;SDS011;31019;43.780;25.948;2023-09-19T14:31:05;23.45;;;21.95;;
45274;SDS011;31019;43.780;25.948;2023-09-19T14:33:34;23.92;;;22.23;;
45274;SDS011;31019;43.780;25.948;2023-09-19T14:36:04;22.55;;;21.05;;
45274;SDS011;31019;43.780;25.948;2023-09-19T14:38:33;23.50;;;21.90;;
45274;SDS011;31019;43.780;25.948;2023-09-19T14:41:02;22.50;;;20.90;;
45274;SDS011;31019;43.780;25.948;2023-09-19T14:43:30;21.77;;;20.38;;
45274;SDS011;31019;43.780;25.948;2023-09-19T14:46:01;23.83;;;22.23;;
45274;SDS011;31019;43.780;25.948;2023-09-19T14:48:29;25.08;;;23.48;;
45274;SDS011;31019;43.780;25.948;2023-09-19T14:50:59;25.63;;;24.08;;
45274;SDS011;31019;43.780;25.948;2023-09-19T14:53:28;21.17;;;19.80;;
45274;SDS011;31019;43.780;25.948;2023-09-19T14:55:55;24.35;;;22.85;;
45274;SDS011;31019;43.780;25.948;2023-09-19T14:58:24;24.60;;;23.00;;
45274;SDS011;31019;43.780;25.948;2023-09-19T15:01:01;23.08;;;21.58;;
45274;SDS011;31019;43.780;25.948;2023-09-19T15:03:29;23.23;;;21.77;;
45274;SDS011;31019;43.780;25.948;2023-09-19T15:05:58;23.65;;;22.25;;
45274;SDS011;31019;43.780;25.948;2023-09-19T15:08:26;21.45;;;20.05;;
45274;SDS011;31019;43.780;25.948;2023-09-19T15:10:53;22.23;;;20.73;;
45274;SDS011;31019;43.780;25.948;2023-09-19T15:13:20;21.90;;;20.40;;
45274;SDS011;31019;43.780;25.948;2023-09-19T15:15:50;22.90;;;21.50;;
45274;SDS011;31019;43.780;25.948;2023-09-19T15:18:17;23.80;;;22.30;;
45274;SDS011;31019;43.780;25.948;2023-09-19T15:20:44;24.10;;;22.50;;
45274;SDS011;31019;43.780;25.948;2023-09-19T15:23:13;23.98;;;22.58;;
45274;SDS011;31019;43.780;25.948;2023-09-19T15:25:47;21.60;;;20.15;;
45274;SDS011;31019;43.780;25.948;2023-09-19T15:28:14;23.58;;;22.08;;
45274;SDS011;31019;43.780;25.948;2023-09-19T15:30:42;20.05;;;18.75;;
45274;SDS011;31019;43.780;25.948;2023-09-19T15:33:11;19.48;;;18.08;;
45274;SDS011;31019;43.780;25.948;2023-09-19T15:35:38;21.98;;;20.48;;
45274;SDS011;31019;43.780;25.948;2023-09-19T15:38:05;24.38;;;22.88;;
45274;SDS011;31019;43.780;25.948;2023-09-19T15:40:32;21.00;;;19.70;;
45274;SDS011;31019;43.780;25.948;2023-09-19T15:42:59;21.13;;;19.83;;
45274;SDS011;31019;43.780;25.948;2023-09-19T15:45:27;22.60;;;21.20;;
45274;SDS011;31019;43.780;25.948;2023-09-19T15:47:54;28.25;;;21.38;;
45274;SDS011;31019;43.780;25.948;2023-09-19T15:50:23;23.45;;;22.05;;
45274;SDS011;31019;43.780;25.948;2023-09-19T15:52:52;22.77;;;21.48;;
45274;SDS011;31019;43.780;25.948;2023-09-19T15:55:21;22.33;;;21.02;;
45274;SDS011;31019;43.780;25.948;2023-09-19T15:57:48;19.58;;;18.38;;
45274;SDS011;31019;43.780;25.948;2023-09-19T16:00:15;20.95;;;19.65;;
45274;SDS011;31019;43.780;25.948;2023-09-19T16:02:47;26.25;;;24.65;;
45274;SDS011;31019;43.780;25.948;2023-09-19T16:05:15;23.35;;;22.05;;
45274;SDS011;31019;43.780;25.948;2023-09-19T16:07:44;23.65;;;22.35;;
45274;SDS011;31019;43.780;25.948;2023-09-19T16:10:11;25.73;;;24.33;;
45274;SDS011;31019;43.780;25.948;2023-09-19T16:12:39;22.13;;;20.95;;
45274;SDS011;31019;43.780;25.948;2023-09-19T16:15:06;24.70;;;23.40;;
45274;SDS011;31019;43.780;25.948;2023-09-19T16:17:36;23.60;;;22.27;;
45274;SDS011;31019;43.780;25.948;2023-09-19T16:20:03;23.20;;;21.90;;
45274;SDS011;31019;43.780;25.948;2023-09-19T16:22:33;24.05;;;22.75;;
45274;SDS011;31019;43.780;25.948;2023-09-19T16:25:13;22.27;;;20.98;;
45274;SDS011;31019;43.780;25.948;2023-09-19T16:27:40;21.48;;;20.17;;
45274;SDS011;31019;43.780;25.948;2023-09-19T16:30:07;21.90;;;20.90;;
45274;SDS011;31019;43.780;25.948;2023-09-19T16:32:35;22.67;;;21.38;;
45274;SDS011;31019;43.780;25.948;2023-09-19T16:35:02;22.77;;;21.10;;
45274;SDS011;31019;43.780;25.948;2023-09-19T16:37:37;23.63;;;20.38;;
45274;SDS011;31019;43.780;25.948;2023-09-19T16:40:21;42.25;;;39.65;;
45274;SDS011;31019;43.780;25.948;2023-09-19T16:42:48;43.75;;;39.95;;
45274;SDS011;31019;43.780;25.948;2023-09-19T16:45:15;24.17;;;22.48;;
45274;SDS011;31019;43.780;25.948;2023-09-19T16:47:42;23.90;;;22.30;;
45274;SDS011;31019;43.780;25.948;2023-09-19T16:50:19;21.88;;;20.38;;
45274;SDS011;31019;43.780;25.948;2023-09-19T16:52:46;23.30;;;21.75;;
45274;SDS011;31019;43.780;25.948;2023-09-19T16:55:13;22.45;;;20.95;;
45274;SDS011;31019;43.780;25.948;2023-09-19T16:57:42;22.10;;;20.90;;
45274;SDS011;31019;43.780;25.948;2023-09-19T17:00:10;23.10;;;21.70;;
45274;SDS011;31019;43.780;25.948;2023-09-19T17:02:39;23.10;;;21.75;;
45274;SDS011;31019;43.780;25.948;2023-09-19T17:05:06;21.73;;;20.23;;
45274;SDS011;31019;43.780;25.948;2023-09-19T17:07:35;22.33;;;20.73;;
45274;SDS011;31019;43.780;25.948;2023-09-19T17:10:04;25.50;;;23.90;;
45274;SDS011;31019;43.780;25.948;2023-09-19T17:12:32;21.48;;;20.27;;
45274;SDS011;31019;43.780;25.948;2023-09-19T17:15:01;27.23;;;25.52;;
45274;SDS011;31019;43.780;25.948;2023-09-19T17:17:27;22.88;;;21.48;;
45274;SDS011;31019;43.780;25.948;2023-09-19T17:20:02;22.17;;;20.98;;
45274;SDS011;31019;43.780;25.948;2023-09-19T17:22:30;21.83;;;20.52;;
45274;SDS011;31019;43.780;25.948;2023-09-19T17:24:56;34.03;;;30.80;;
45274;SDS011;31019;43.780;25.948;2023-09-19T17:27:24;27.50;;;25.55;;
45274;SDS011;31019;43.780;25.948;2023-09-19T17:29:53;22.42;;;20.98;;
45274;SDS011;31019;43.780;25.948;2023-09-19T17:32:23;22.40;;;21.10;;
45274;SDS011;31019;43.780;25.948;2023-09-19T17:34:51;23.52;;;22.13;;
45274;SDS011;31019;43.780;25.948;2023-09-19T17:37:18;23.40;;;22.10;;
45274;SDS011;31019;43.780;25.948;2023-09-19T17:39:45;26.42;;;24.83;;
45274;SDS011;31019;43.780;25.948;2023-09-19T17:42:12;29.25;;;24.83;;
45274;SDS011;31019;43.780;25.948;2023-09-19T17:44:39;27.50;;;25.80;;
45274;SDS011;31019;43.780;25.948;2023-09-19T17:47:06;27.95;;;26.35;;
45274;SDS011;31019;43.780;25.948;2023-09-19T17:49:34;28.38;;;26.77;;
45274;SDS011;31019;43.780;25.948;2023-09-19T17:52:01;26.50;;;24.80;;
45274;SDS011;31019;43.780;25.948;2023-09-19T17:54:29;24.70;;;23.17;;
45274;SDS011;31019;43.780;25.948;2023-09-19T17:56:58;25.85;;;24.25;;
45274;SDS011;31019;43.780;25.948;2023-09-19T17:59:27;24.67;;;23.27;;
45274;SDS011;31019;43.780;25.948;2023-09-19T18:01:54;22.90;;;21.60;;
45274;SDS011;31019;43.780;25.948;2023-09-19T18:04:21;24.92;;;23.63;;
45274;SDS011;31019;43.780;25.948;2023-09-19T18:06:49;26.08;;;24.67;;
45274;SDS011;31019;43.780;25.948;2023-09-19T18:09:16;25.52;;;24.02;;
45274;SDS011;31019;43.780;25.948;2023-09-19T18:11:43;25.50;;;23.90;;
45274;SDS011;31019;43.780;25.948;2023-09-19T18:17:06;28.60;;;26.90;;
45274;SDS011;31019;43.780;25.948;2023-09-19T18:19:46;22.98;;;21.40;;
45274;SDS011;31019;43.780;25.948;2023-09-19T18:22:28;40.33;;;38.17;;
45274;SDS011;31019;43.780;25.948;2023-09-19T18:24:55;35.80;;;34.00;;
45274;SDS011;31019;43.780;25.948;2023-09-19T18:27:22;34.80;;;32.97;;
45274;SDS011;31019;43.780;25.948;2023-09-19T18:29:48;32.45;;;30.75;;
45274;SDS011;31019;43.780;25.948;2023-09-19T18:32:16;35.83;;;33.92;;
45274;SDS011;31019;43.780;25.948;2023-09-19T18:34:43;24.25;;;22.90;;
45274;SDS011;31019;43.780;25.948;2023-09-19T18:37:10;23.63;;;22.13;;
45274;SDS011;31019;43.780;25.948;2023-09-19T18:39:44;25.83;;;24.13;;
45274;SDS011;31019;43.780;25.948;2023-09-19T18:42:11;71.78;;;67.88;;
45274;SDS011;31019;43.780;25.948;2023-09-19T18:44:38;78.15;;;74.05;;
45274;SDS011;31019;43.780;25.948;2023-09-19T18:47:07;71.43;;;67.72;;
45274;SDS011;31019;43.780;25.948;2023-09-19T18:49:35;67.80;;;64.30;;
45274;SDS011;31019;43.780;25.948;2023-09-19T18:52:03;54.97;;;52.05;;
45274;SDS011;31019;43.780;25.948;2023-09-19T18:54:33;44.72;;;42.33;;
45274;SDS011;31019;43.780;25.948;2023-09-19T18:57:04;48.53;;;45.80;;
45274;SDS011;31019;43.780;25.948;2023-09-19T18:59:31;26.38;;;24.48;;
45274;SDS011;31019;43.780;25.948;2023-09-19T19:01:58;24.00;;;22.60;;
45274;SDS011;31019;43.780;25.948;2023-09-19T19:04:26;24.10;;;22.67;;
45274;SDS011;31019;43.780;25.948;2023-09-19T19:06:53;25.73;;;24.13;;
45274;SDS011;31019;43.780;25.948;2023-09-19T19:09:20;24.60;;;23.00;;
45274;SDS011;31019;43.780;25.948;2023-09-19T19:11:47;57.35;;;54.35;;
45274;SDS011;31019;43.780;25.948;2023-09-19T19:14:15;69.18;;;65.50;;
45274;SDS011;31019;43.780;25.948;2023-09-19T19:16:43;63.28;;;59.97;;
45274;SDS011;31019;43.780;25.948;2023-09-19T19:19:12;52.22;;;49.38;;
45274;SDS011;31019;43.780;25.948;2023-09-19T19:21:41;48.38;;;45.67;;
45274;SDS011;31019;43.780;25.948;2023-09-19T19:24:08;46.00;;;43.60;;
45274;SDS011;31019;43.780;25.948;2023-09-19T19:26:35;25.20;;;23.60;;
45274;SDS011;31019;43.780;25.948;2023-09-19T19:29:04;24.15;;;22.65;;
45274;SDS011;31019;43.780;25.948;2023-09-19T19:31:35;65.85;;;59.10;;
45274;SDS011;31019;43.780;25.948;2023-09-19T19:34:08;66.65;;;63.05;;
45274;SDS011;31019;43.780;25.948;2023-09-19T19:36:36;54.30;;;51.30;;
45274;SDS011;31019;43.780;25.948;2023-09-19T19:39:03;59.25;;;55.95;;
45274;SDS011;31019;43.780;25.948;2023-09-19T19:41:30;53.28;;;50.38;;
45274;SDS011;31019;43.780;25.948;2023-09-19T19:44:02;29.35;;;26.85;;
45274;SDS011;31019;43.780;25.948;2023-09-19T19:46:29;25.48;;;23.88;;
45274;SDS011;31019;43.780;25.948;2023-09-19T19:48:57;54.92;;;51.83;;
45274;SDS011;31019;43.780;25.948;2023-09-19T19:51:25;60.83;;;57.72;;
45274;SDS011;31019;43.780;25.948;2023-09-19T19:53:53;54.17;;;51.28;;
45274;SDS011;31019;43.780;25.948;2023-09-19T19:56:26;55.20;;;52.30;;
45274;SDS011;31019;43.780;25.948;2023-09-19T19:58:53;48.25;;;45.55;;
45274;SDS011;31019;43.780;25.948;2023-09-19T20:01:20;56.00;;;53.05;;
45274;SDS011;31019;43.780;25.948;2023-09-19T20:03:47;25.90;;;24.10;;
45274;SDS011;31019;43.780;25.948;2023-09-19T20:06:21;24.90;;;23.30;;
45274;SDS011;31019;43.780;25.948;2023-09-19T20:08:50;43.70;;;41.30;;
45274;SDS011;31019;43.780;25.948;2023-09-19T20:11:19;50.05;;;47.45;;
45274;SDS011;31019;43.780;25.948;2023-09-19T20:13:51;47.47;;;44.78;;
45274;SDS011;31019;43.780;25.948;2023-09-19T20:16:18;43.08;;;40.42;;
45274;SDS011;31019;43.780;25.948;2023-09-19T20:18:45;46.13;;;43.80;;
45274;SDS011;31019;43.780;25.948;2023-09-19T20:21:12;45.15;;;42.70;;